createdAt,value
2022-12-27T00:00:26.821Z,5.03
2022-12-27T00:03:09.612Z,4.05
2022-12-27T00:05:52.283Z,5.55
2022-12-27T00:08:34.994Z,4.55
2022-12-27T00:11:18.661Z,5.50
2022-12-27T00:14:01.812Z,5.53
2022-12-27T00:16:45.864Z,4.32
2022-12-27T00:19:28.605Z,4.60
2022-12-27T00:22:11.372Z,4.68
2022-12-27T00:24:54.383Z,4.65
2022-12-27T00:27:37.049Z,3.42
2022-12-27T00:30:19.912Z,8.57
2022-12-27T00:33:03.948Z,4.75
2022-12-27T00:35:46.734Z,5.57
2022-12-27T00:38:29.606Z,6.53
2022-12-27T00:41:12.641Z,2.60
2022-12-27T00:43:55.297Z,5.88
2022-12-27T00:46:37.994Z,4.95
2022-12-27T00:49:22.006Z,4.57
2022-12-27T00:52:04.815Z,3.50
2022-12-27T00:54:47.514Z,5.63
2022-12-27T00:57:30.115Z,4.03
2022-12-27T01:00:13.429Z,5.28
2022-12-27T01:02:56.069Z,4.45
2022-12-27T01:05:40.052Z,6.38
2022-12-27T01:08:24.173Z,2.50
2022-12-27T01:11:06.975Z,4.93
2022-12-27T01:13:50.083Z,2.70
2022-12-27T01:16:33.168Z,1.77
2022-12-27T01:19:16.016Z,3.55
2022-12-27T01:22:01.092Z,2.25
2022-12-27T01:24:43.874Z,3.35
2022-12-27T01:27:26.522Z,5.65
2022-12-27T01:30:09.842Z,5.55
2022-12-27T01:32:52.450Z,4.85
2022-12-27T01:35:35.083Z,3.90
2022-12-27T01:38:19.035Z,3.75
2022-12-27T01:41:21.686Z,2.78
2022-12-27T01:44:18.215Z,4.82
2022-12-27T01:47:01.454Z,4.38
2022-12-27T01:49:46.799Z,2.42
2022-12-27T01:52:34.885Z,2.92
2022-12-27T01:55:21.876Z,6.72
2022-12-27T01:58:06.347Z,4.07
2022-12-27T02:00:49.611Z,5.22
2022-12-27T02:03:33.620Z,3.30
2022-12-27T02:06:16.921Z,3.88
2022-12-27T02:09:02.166Z,4.05
2022-12-27T02:11:53.388Z,2.38
2022-12-27T02:14:37.117Z,5.25
2022-12-27T02:17:20.679Z,3.65
2022-12-27T02:20:06.838Z,4.15
2022-12-27T02:23:26.058Z,3.22
2022-12-27T02:26:21.982Z,5.88
2022-12-27T02:29:16.407Z,3.10
2022-12-27T02:32:01.772Z,4.30
2022-12-27T02:34:48.147Z,3.78
2022-12-27T02:37:32.773Z,4.25
2022-12-27T02:40:34.449Z,5.63
2022-12-27T02:43:35.047Z,5.65
2022-12-27T02:46:39.274Z,4.90
2022-12-27T02:49:43.588Z,3.47
2022-12-27T02:52:48.852Z,3.35
2022-12-27T02:55:35.242Z,4.47
2022-12-27T02:58:22.355Z,6.95
2022-12-27T03:01:25.319Z,6.45
2022-12-27T03:04:19.862Z,4.32
2022-12-27T03:07:08.743Z,5.40
2022-12-27T03:10:14.350Z,5.97
2022-12-27T03:13:18.214Z,4.00
2022-12-27T03:16:10.706Z,6.15
2022-12-27T03:19:02.741Z,3.50
2022-12-27T03:22:05.185Z,6.53
2022-12-27T03:25:05.875Z,3.30
2022-12-27T03:28:10.093Z,6.63
2022-12-27T03:31:13.630Z,3.65
2022-12-27T03:34:04.494Z,5.15
2022-12-27T03:37:06.139Z,4.68
2022-12-27T03:39:51.104Z,4.85
2022-12-27T03:42:54.106Z,4.85
2022-12-27T03:45:59.866Z,5.70
2022-12-27T03:49:03.526Z,3.55
2022-12-27T03:51:49.312Z,4.18
2022-12-27T03:54:35.277Z,3.33
2022-12-27T03:57:18.946Z,4.25
2022-12-27T04:00:01.525Z,4.82
2022-12-27T04:02:45.035Z,5.72
2022-12-27T04:05:27.902Z,4.32
2022-12-27T04:08:28.173Z,4.30
2022-12-27T04:11:29.477Z,5.85
2022-12-27T04:14:29.722Z,3.03
2022-12-27T04:17:30.055Z,6.22
2022-12-27T04:20:30.560Z,2.85
2022-12-27T04:23:30.691Z,4.35
2022-12-27T04:26:31.968Z,3.53
2022-12-27T04:29:31.846Z,4.80
2022-12-27T04:32:31.827Z,9.55
2022-12-27T04:35:14.466Z,4.10
2022-12-27T04:37:57.054Z,4.97
2022-12-27T04:40:56.946Z,5.82
2022-12-27T04:43:58.350Z,4.60
2022-12-27T04:46:58.793Z,6.55
2022-12-27T04:49:58.934Z,4.45
2022-12-27T04:52:59.087Z,5.15
2022-12-27T04:55:41.731Z,4.30
2022-12-27T04:58:24.576Z,4.28
2022-12-27T05:01:25.798Z,4.55
2022-12-27T05:04:08.483Z,3.60
2022-12-27T05:06:51.144Z,7.18
2022-12-27T05:09:51.181Z,4.47
2022-12-27T05:12:52.672Z,4.93
2022-12-27T05:15:35.265Z,6.60
2022-12-27T05:18:19.196Z,4.18
2022-12-27T05:21:02.938Z,5.63
2022-12-27T05:24:05.588Z,4.63
2022-12-27T05:26:48.502Z,2.90
2022-12-27T05:29:36.024Z,3.78
2022-12-27T05:32:18.656Z,3.30
2022-12-27T05:35:02.672Z,4.13
2022-12-27T05:37:48.821Z,0.93
2022-12-27T05:40:35.988Z,3.00
2022-12-27T05:43:18.598Z,3.75
2022-12-27T05:46:03.880Z,1.88
2022-12-27T05:48:47.932Z,2.55
2022-12-27T05:51:32.161Z,3.55
2022-12-27T05:54:14.856Z,2.53
2022-12-27T05:56:57.664Z,3.33
2022-12-27T05:59:40.269Z,4.43
2022-12-27T06:02:23.164Z,2.22
2022-12-27T06:05:06.252Z,2.33
2022-12-27T06:07:50.872Z,4.78
2022-12-27T06:10:33.444Z,3.15
2022-12-27T06:13:16.033Z,3.33
2022-12-27T06:15:59.672Z,4.25
2022-12-27T06:18:42.633Z,2.83
2022-12-27T06:21:25.334Z,3.97
2022-12-27T06:24:09.544Z,3.47
2022-12-27T06:26:53.141Z,1.80
2022-12-27T06:29:35.792Z,5.80
2022-12-27T06:32:18.491Z,3.97
2022-12-27T06:35:01.143Z,3.13
2022-12-27T06:37:43.808Z,1.67
2022-12-27T06:40:27.842Z,3.55
2022-12-27T06:43:10.493Z,2.30
2022-12-27T06:45:56.682Z,2.60
2022-12-27T06:48:39.396Z,4.30
2022-12-27T06:51:22.276Z,3.50
2022-12-27T06:54:04.880Z,4.78
2022-12-27T06:56:48.868Z,4.75
2022-12-27T06:59:31.519Z,2.45
2022-12-27T07:02:14.263Z,5.32
2022-12-27T07:04:57.077Z,3.78
2022-12-27T07:07:39.725Z,4.93
2022-12-27T07:10:22.600Z,3.72
2022-12-27T07:13:06.782Z,3.53
2022-12-27T07:15:49.473Z,3.33
2022-12-27T07:18:32.336Z,4.57
2022-12-27T07:21:16.599Z,2.85
2022-12-27T07:24:00.536Z,3.70
2022-12-27T07:26:43.181Z,2.90
2022-12-27T07:29:27.594Z,3.65
2022-12-27T07:32:10.252Z,4.97
2022-12-27T07:34:52.934Z,2.22
2022-12-27T07:37:35.553Z,1.77
2022-12-27T07:40:19.164Z,4.20
2022-12-27T07:43:01.835Z,2.05
2022-12-27T07:45:45.874Z,1.35
2022-12-27T07:48:29.170Z,4.28
2022-12-27T07:51:12.594Z,6.20
2022-12-27T07:53:55.628Z,2.17
2022-12-27T07:56:38.301Z,2.97
2022-12-27T07:59:22.268Z,2.72
2022-12-27T08:02:07.446Z,3.22
2022-12-27T08:04:51.038Z,2.05
2022-12-27T08:07:33.936Z,3.05
2022-12-27T08:10:19.887Z,3.70
2022-12-27T08:13:03.047Z,5.00
2022-12-27T08:15:45.715Z,3.42
2022-12-27T08:18:30.059Z,1.90
2022-12-27T08:21:12.677Z,3.20
2022-12-27T08:23:55.443Z,4.95
2022-12-27T08:26:38.117Z,3.40
2022-12-27T08:29:20.808Z,2.13
2022-12-27T08:32:03.502Z,3.63
2022-12-27T08:34:47.531Z,3.08
2022-12-27T08:37:30.130Z,2.78
2022-12-27T08:40:12.948Z,2.35
2022-12-27T08:42:55.634Z,3.50
2022-12-27T08:45:39.156Z,3.35
2022-12-27T08:48:21.838Z,3.65
2022-12-27T08:51:12.130Z,3.65
2022-12-27T08:53:56.400Z,2.72
2022-12-27T08:56:39.074Z,2.13
2022-12-27T08:59:21.705Z,3.53
2022-12-27T09:02:04.428Z,4.53
2022-12-27T09:04:48.184Z,3.22
2022-12-27T09:07:32.649Z,3.65
2022-12-27T09:10:15.858Z,2.85
2022-12-27T09:12:58.519Z,3.05
2022-12-27T09:15:41.516Z,3.58
2022-12-27T09:18:25.056Z,5.03
2022-12-27T09:21:08.797Z,3.55
2022-12-27T09:23:52.854Z,2.83
2022-12-27T09:26:35.430Z,4.05
2022-12-27T09:29:18.209Z,5.40
2022-12-27T09:32:00.913Z,3.65
2022-12-27T09:34:43.604Z,2.95
2022-12-27T09:37:26.384Z,3.25
2022-12-27T09:40:15.753Z,3.83
2022-12-27T09:43:16.661Z,3.10
2022-12-27T09:46:03.927Z,4.38
2022-12-27T09:48:48.963Z,3.28
2022-12-27T09:51:33.621Z,4.45
2022-12-27T09:54:19.846Z,5.03
2022-12-27T09:57:19.798Z,5.18
2022-12-27T10:00:05.703Z,4.90
2022-12-27T10:02:48.526Z,5.22
2022-12-27T10:05:33.813Z,4.50
2022-12-27T10:08:22.974Z,5.28
2022-12-27T10:11:08.878Z,4.97
2022-12-27T10:13:55.492Z,5.88
2022-12-27T10:16:41.258Z,4.65
2022-12-27T10:19:28.378Z,3.17
2022-12-27T10:22:17.369Z,2.78
2022-12-27T10:25:01.773Z,5.03
2022-12-27T10:27:44.835Z,3.45
2022-12-27T10:30:30.708Z,2.67
2022-12-27T10:33:20.199Z,4.95
2022-12-27T10:36:07.687Z,1.98
2022-12-27T10:38:50.414Z,3.63
2022-12-27T10:41:39.758Z,4.68
2022-12-27T10:44:23.838Z,2.42
2022-12-27T10:47:08.002Z,2.97
2022-12-27T10:50:02.796Z,4.03
2022-12-27T10:52:45.888Z,3.47
2022-12-27T11:23:19.303Z,3.42
2022-12-27T11:26:03.735Z,5.72
2022-12-27T11:28:50.951Z,4.07
2022-12-27T11:31:35.468Z,6.68
2022-12-27T11:34:20.006Z,2.40
2022-12-27T11:37:06.489Z,3.25
2022-12-27T11:39:51.805Z,3.92
2022-12-27T11:42:38.429Z,2.35
2022-12-27T11:45:23.743Z,3.83
2022-12-27T11:48:08.543Z,3.47
2022-12-27T11:50:57.863Z,6.47
2022-12-27T11:53:56.545Z,4.95
2022-12-27T11:56:40.115Z,6.63
2022-12-27T11:59:27.148Z,3.70
2022-12-27T12:02:27.969Z,2.63
2022-12-27T12:09:10.049Z,3.92
2022-12-27T12:12:08.960Z,3.15
2022-12-27T12:14:59.301Z,2.33
2022-12-27T12:17:55.067Z,5.65
2022-12-27T12:20:52.621Z,4.38
2022-12-27T12:23:47.091Z,6.85
2022-12-27T12:26:34.284Z,4.15
2022-12-27T12:29:21.969Z,4.43
2022-12-27T12:32:15.021Z,3.35
2022-12-27T12:35:12.844Z,4.22
2022-12-27T12:38:13.531Z,3.72
2022-12-27T12:41:09.268Z,3.80
2022-12-27T12:44:03.395Z,7.57
2022-12-27T12:46:48.477Z,6.63
2022-12-27T12:49:44.687Z,3.67
2022-12-27T12:52:41.925Z,7.25
2022-12-27T12:55:38.105Z,4.00
2022-12-27T12:58:30.611Z,4.20
2022-12-27T13:01:21.471Z,2.83
2022-12-27T13:04:10.677Z,3.97
2022-12-27T13:07:03.255Z,3.20
2022-12-27T13:09:51.662Z,5.85
2022-12-27T13:12:38.986Z,5.28
2022-12-27T13:15:30.558Z,5.72
2022-12-27T13:18:26.608Z,6.47
2022-12-27T13:21:15.149Z,4.95
2022-12-27T13:24:03.968Z,3.47
2022-12-27T13:26:50.554Z,4.70
2022-12-27T13:29:38.614Z,6.00
2022-12-27T13:32:26.332Z,4.47
2022-12-27T13:35:20.392Z,4.13
2022-12-27T13:38:09.464Z,7.22
2022-12-27T13:41:11.776Z,6.90
2022-12-27T13:44:03.575Z,4.70
2022-12-27T13:46:53.720Z,4.80
2022-12-27T13:49:46.652Z,6.25
2022-12-27T13:52:43.362Z,8.38
2022-12-27T13:55:36.318Z,4.78
2022-12-27T13:58:26.019Z,3.90
2022-12-27T14:01:22.107Z,5.05
2022-12-27T14:04:16.558Z,5.88
2022-12-27T14:07:06.987Z,3.13
2022-12-27T14:09:57.179Z,3.45
2022-12-27T14:12:52.789Z,6.78
2022-12-27T14:15:50.262Z,4.53
2022-12-27T14:18:42.299Z,5.78
2022-12-27T14:21:39.884Z,5.50
2022-12-27T14:24:32.029Z,4.78
2022-12-27T14:27:33.657Z,4.13
2022-12-27T14:30:23.004Z,4.22
2022-12-27T14:33:27.116Z,7.57
2022-12-27T14:36:19.664Z,9.63
2022-12-27T14:39:21.668Z,3.85
2022-12-27T14:42:17.605Z,5.78
2022-12-27T14:45:19.057Z,8.25
2022-12-27T14:48:11.445Z,4.40
2022-12-27T14:51:58.253Z,5.90
2022-12-27T14:54:44.694Z,5.00
2022-12-27T14:57:33.980Z,5.30
2022-12-27T15:00:18.404Z,4.25
2022-12-27T15:03:23.088Z,4.97
2022-12-27T15:06:12.156Z,4.15
2022-12-27T15:09:05.375Z,8.80
2022-12-27T15:11:57.786Z,4.57
2022-12-27T15:14:53.987Z,6.18
2022-12-27T15:17:42.963Z,6.35
2022-12-27T15:20:38.862Z,5.07
2022-12-27T15:23:26.236Z,3.67
2022-12-27T15:26:15.883Z,6.30
2022-12-27T15:29:05.087Z,4.82
2022-12-27T15:31:52.756Z,5.50
2022-12-27T15:34:55.509Z,7.90
2022-12-27T15:38:01.267Z,6.30
2022-12-27T15:40:57.877Z,7.22
2022-12-27T15:43:48.691Z,4.70
2022-12-27T15:46:46.067Z,5.70
2022-12-27T15:49:36.719Z,4.72
2022-12-27T15:52:23.292Z,8.52
2022-12-27T15:55:15.772Z,5.72
2022-12-27T15:58:13.126Z,3.92
2022-12-27T16:01:15.980Z,6.10
2022-12-27T16:04:21.876Z,6.57
2022-12-27T16:07:04.774Z,7.05
2022-12-27T16:09:47.499Z,6.18
2022-12-27T16:12:38.377Z,7.20
2022-12-27T16:15:37.505Z,4.65
2022-12-27T16:18:38.714Z,6.32
2022-12-27T16:21:22.401Z,7.38
2022-12-27T16:24:06.481Z,8.57
2022-12-27T16:26:57.891Z,4.88
2022-12-27T16:29:45.188Z,8.07
2022-12-27T16:32:28.501Z,8.63
2022-12-27T16:35:13.737Z,6.20
2022-12-27T16:37:57.015Z,6.20
2022-12-27T16:40:45.252Z,5.50
2022-12-27T16:43:48.756Z,6.07
2022-12-27T16:46:46.302Z,7.45
2022-12-27T16:49:51.412Z,7.43
2022-12-27T16:52:47.353Z,5.45
2022-12-27T16:56:03.189Z,7.07
2022-12-27T16:58:45.858Z,8.00
2022-12-27T17:01:55.552Z,5.43
2022-12-27T17:04:56.582Z,6.63
2022-12-27T17:07:49.604Z,6.53
2022-12-27T17:10:35.140Z,7.45
2022-12-27T17:13:19.579Z,8.25
2022-12-27T17:16:06.247Z,5.07
2022-12-27T17:18:50.456Z,6.03
2022-12-27T17:21:35.590Z,6.60
2022-12-27T17:24:19.911Z,7.97
2022-12-27T17:27:09.352Z,8.32
2022-12-27T17:30:06.919Z,5.15
2022-12-27T17:32:57.460Z,5.75
2022-12-27T17:35:45.434Z,6.35
2022-12-27T17:38:34.969Z,3.60
2022-12-27T17:41:42.141Z,6.80
2022-12-27T17:44:39.905Z,10.48
2022-12-27T17:47:40.860Z,6.72
2022-12-27T17:50:25.613Z,8.30
2022-12-27T17:53:36.519Z,6.25
2022-12-27T17:56:39.225Z,6.47
2022-12-27T17:59:24.929Z,6.32
2022-12-27T18:02:12.647Z,10.25
2022-12-27T18:04:56.553Z,7.80
2022-12-27T18:07:39.800Z,7.47
2022-12-27T18:10:23.745Z,9.18
2022-12-27T18:13:08.042Z,5.55
2022-12-27T18:15:51.564Z,9.88
2022-12-27T18:18:34.943Z,9.43
2022-12-27T18:21:25.108Z,7.03
2022-12-27T18:24:19.258Z,5.90
2022-12-27T18:27:05.960Z,7.47
2022-12-27T18:29:50.685Z,5.53
2022-12-27T18:32:33.530Z,6.90
2022-12-27T18:35:21.072Z,6.25
2022-12-27T18:38:07.737Z,7.90
2022-12-27T18:40:58.530Z,7.97
2022-12-27T18:43:43.462Z,5.88
2022-12-27T18:46:28.749Z,7.57
2022-12-27T18:49:23.149Z,7.35
2022-12-27T18:52:12.951Z,7.68
2022-12-27T18:54:55.648Z,8.73
2022-12-27T18:57:38.668Z,6.88
2022-12-27T19:00:22.728Z,8.70
2022-12-27T19:03:16.769Z,6.82
2022-12-27T19:06:01.702Z,8.25
2022-12-27T19:08:46.166Z,10.25
2022-12-27T19:11:34.572Z,9.00
2022-12-27T19:14:19.955Z,5.53
2022-12-27T19:17:08.739Z,8.88
2022-12-27T19:19:56.131Z,8.73
2022-12-27T19:22:42.368Z,7.35
2022-12-27T19:25:26.279Z,7.97
2022-12-27T19:28:25.539Z,7.97
2022-12-27T19:31:16.276Z,5.72
2022-12-27T19:34:00.991Z,7.57
2022-12-27T19:36:45.512Z,6.72
2022-12-27T19:39:29.836Z,9.35
2022-12-27T19:42:14.844Z,9.35
2022-12-27T19:44:57.934Z,8.73
2022-12-27T19:47:40.580Z,7.05
2022-12-27T19:50:23.266Z,8.50
2022-12-27T19:53:07.355Z,5.68
2022-12-27T19:55:50.107Z,5.80
2022-12-27T19:58:32.984Z,6.45
2022-12-27T20:01:15.760Z,5.68
2022-12-27T20:03:58.467Z,7.65
2022-12-27T20:06:41.414Z,7.90
2022-12-27T20:09:25.459Z,10.07
2022-12-27T20:12:09.525Z,7.43
2022-12-27T20:14:53.621Z,7.25
2022-12-27T20:17:39.682Z,7.97
2022-12-27T20:20:27.269Z,7.57
2022-12-27T20:23:09.959Z,7.60
2022-12-27T20:25:54.046Z,8.25
2022-12-27T20:28:36.803Z,7.80
2022-12-27T20:31:20.948Z,7.68
2022-12-27T20:34:04.995Z,7.57
2022-12-27T20:36:47.669Z,8.77
2022-12-27T20:39:30.299Z,6.38
2022-12-27T20:42:14.358Z,8.00
2022-12-27T20:44:56.968Z,7.70
2022-12-27T20:47:39.759Z,7.68
2022-12-27T20:50:22.370Z,7.43
2022-12-27T20:53:05.005Z,7.85
2022-12-27T20:55:57.954Z,6.95
2022-12-27T20:58:42.003Z,5.28
2022-12-27T21:01:25.891Z,7.63
2022-12-27T21:04:09.975Z,9.70
2022-12-27T21:06:52.638Z,5.30
2022-12-27T21:09:35.302Z,9.70
2022-12-27T21:12:18.524Z,7.63
2022-12-27T21:15:02.723Z,8.05
2022-12-27T21:17:45.430Z,8.45
2022-12-27T21:20:28.134Z,7.63
2022-12-27T21:23:11.028Z,7.43
2022-12-27T21:25:53.772Z,10.82
2022-12-27T21:28:36.946Z,9.18
2022-12-27T21:31:21.177Z,8.88
2022-12-27T21:34:04.736Z,8.98
2022-12-27T21:36:51.269Z,7.72
2022-12-27T21:39:35.072Z,9.40
2022-12-27T21:42:17.793Z,9.95
2022-12-27T21:45:00.474Z,7.95
2022-12-27T21:47:44.490Z,10.68
2022-12-27T21:50:30.221Z,11.85
2022-12-27T21:53:17.101Z,11.38
2022-12-27T21:55:59.953Z,11.88
2022-12-27T21:58:43.252Z,9.85
2022-12-27T22:01:27.446Z,12.52
2022-12-27T22:04:11.787Z,8.60
2022-12-27T22:06:54.518Z,11.13
2022-12-27T22:09:37.243Z,11.13
2022-12-27T22:12:19.932Z,10.23
2022-12-27T22:15:02.694Z,10.15
2022-12-27T22:17:45.572Z,12.63
2022-12-27T22:20:29.601Z,11.00
2022-12-27T22:23:12.220Z,8.27
2022-12-27T22:25:54.917Z,8.88
2022-12-27T22:28:37.566Z,8.02
2022-12-27T22:31:21.640Z,9.23
2022-12-27T22:34:05.052Z,7.07
2022-12-27T22:36:50.800Z,8.30
2022-12-27T22:39:33.516Z,10.52
2022-12-27T22:42:16.380Z,8.82
2022-12-27T22:44:59.071Z,8.18
2022-12-27T22:47:41.832Z,7.70
2022-12-27T22:50:24.471Z,7.63
2022-12-27T22:53:08.539Z,7.43
2022-12-27T22:55:51.179Z,7.55
2022-12-27T22:58:33.820Z,10.13
2022-12-27T23:01:17.342Z,10.32
2022-12-27T23:04:00.570Z,8.80
2022-12-27T23:06:45.253Z,7.32
2022-12-27T23:09:29.404Z,9.80
2022-12-27T23:12:12.353Z,7.50
2022-12-27T23:14:55.035Z,7.60
2022-12-27T23:17:37.740Z,8.90
2022-12-27T23:20:20.458Z,7.60
2022-12-27T23:23:03.152Z,8.93
2022-12-27T23:25:47.319Z,9.82
2022-12-27T23:28:30.054Z,6.75
2022-12-27T23:31:12.949Z,6.57
2022-12-27T23:33:55.868Z,7.93
2022-12-27T23:36:38.544Z,6.63
2022-12-27T23:39:21.428Z,6.20
2022-12-27T23:42:05.531Z,6.15
2022-12-27T23:44:48.162Z,9.20
2022-12-27T23:47:30.801Z,7.22
2022-12-27T23:50:20.587Z,7.75
2022-12-27T23:53:03.699Z,6.75
2022-12-27T23:55:46.406Z,6.32
2022-12-27T23:58:30.885Z,6.97
